Motte Rimrock Reserve, California Weather observations

Data are for 10 minute period ending at time listed.
 Day   Time   Solar   Ave.   Ave.  Ave.  Vector  Max.   Baro.   Total    
  of    of     Rad.   Air    Rel.  Wind   Wind   Wind  Press.  Precip.   
Year   Day            Temp.  Hum.  Speed  Dir.   Gust                    
2017   (PST)  Kw/m2    F      %     mph   deg.    mph    mb.     in.     
-------------------------------------------------------------------------
  83   17:00   0.14   62.9    46   14.5   313    17.9   952.5    0.00 
  83   17:10   0.10   62.0    48   12.4   310    16.0   952.6    0.00 
  83   17:20   0.09   61.8    49   12.5   317    15.6   952.6    0.00 
  83   17:30   0.08   61.2    50   12.9   311    16.4   952.5    0.00 
  83   17:40   0.04   60.1    53   13.6   309    18.0   952.5    0.00 
  83   17:50   0.02   59.2    54   12.7   310    16.5   952.5    0.00 
  83   18:00   0.00   58.1    56   12.7   313    17.2   952.4    0.00 
  83   18:10   0.00   57.6    57   15.5   308    18.1   952.3    0.00 
  83   18:20   0.00   57.0    58   14.3   307    17.1   952.2    0.00 
  83   18:30   0.00   56.4    60   13.5   306    15.9   952.1    0.00 
  83   18:40   0.00   55.9    61   13.5   302    16.4   952.1    0.00 
  83   18:50   0.00   55.3    63   12.3   303    15.8   952.2    0.00 
  83   19:00   0.00   55.0    65   13.3   304    16.4   952.2    0.00 
  83   19:10   0.00   54.8    66   13.1   306    16.3   952.3    0.00 
  83   19:20   0.00   54.5    67   11.8   305    15.0   952.4    0.00 
  83   19:30   0.00   54.2    68   12.6   303    15.8   952.5    0.00 
  83   19:40   0.00   54.1    69   12.7   302    16.1   952.6    0.00 
  83   19:50   0.00   53.8    70   11.4   302    14.8   952.7    0.00 
  83   20:00   0.00   53.5    70   12.1   304    15.1   952.8    0.00 
  83   20:10   0.00   53.1    71   11.9   307    14.5   952.8    0.00 
  83   20:20   0.00   53.1    71   12.3   309    15.1   952.8    0.00 
  83   20:30   0.00   53.1    70   12.0   302    15.3   952.9    0.00 
  83   20:40   0.00   52.7    71    9.5   308    11.5   952.9    0.00 
  83   20:50   0.00   51.7    74    8.8   318    10.4   952.9    0.00 
  83   21:00   0.00   51.0    75    7.9   324     9.7   953.0    0.00 
  83   21:10   0.00   51.0    75    7.7   326     9.1   953.1    0.00 
  83   21:20   0.00   50.9    75    6.9   325     9.3   953.1    0.00 
  83   21:30   0.00   50.0    77    1.0   221     3.2   953.0    0.00 
  83   21:40   0.00   50.9    75    2.1   313     3.7   953.0    0.00 
  83   21:50   0.00   51.2    74    3.2   311     5.2   952.9    0.00 
  83   22:00   0.00   50.5    76    3.4   285     4.4   952.9    0.00 
  83   22:10   0.00   49.9    77    4.3   282     4.9   952.9    0.00 
  83   22:20   0.00   49.8    78    5.8   284     7.1   952.9    0.00 
  83   22:30   0.00   49.9    78    6.1   294     7.0   952.8    0.00 
  83   22:40   0.00   50.3    77    4.7   305     5.8   952.7    0.00 
  83   22:50   0.00   50.8    75    3.2   308     4.8   952.8    0.00 
  83   23:00   0.00   50.5    76    3.4   306     4.5   952.8    0.00 
  83   23:10   0.00   50.4    77    3.7   310     5.0   952.7    0.00 
  83   23:20   0.00   49.8    79    4.1   308     5.1   952.7    0.00 
  83   23:30   0.00   50.3    79    3.8   316     4.5   952.6    0.00 
  83   23:40   0.00   50.5    79    3.3   336     4.9   952.5    0.00 
  83   23:50   0.00   51.0    77    0.3    23     2.0   952.5    0.00 
  84    0:00   0.00   51.3    75    2.1   105     3.7   952.3    0.00 
  84    0:10   0.00   50.8    76    3.1   113     3.7   952.3    0.00 
  84    0:20   0.00   50.8    76    1.2   105     2.9   952.4    0.00 
  84    0:30   0.00   50.7    76    1.0   318     2.3   952.4    0.00 
  84    0:40   0.00   50.9    76    0.2   321     1.1   952.3    0.00 
  84    0:50   0.00   50.9    76    0.6   318     2.2   952.3    0.00 
  84    1:00   0.00   50.0    80    4.9   326     6.9   952.4    0.00 
  84    1:10   0.00   49.2    83    5.0   324     6.5   952.3    0.00 
  84    1:20   0.00   48.9    85    4.9   328     5.7   952.1    0.00 
  84    1:30   0.00   49.1    86    4.3   349     5.6   951.8    0.00 
  84    1:40   0.00   49.4    85    4.3     5     7.2   951.6    0.00 
  84    1:50   0.00   49.0    87    4.7   354     6.4   951.6    0.00 
  84    2:00   0.00   48.9    87    4.3    12     5.9   951.2    0.00 
  84    2:10   0.00   49.3    86    4.0     9     5.4   950.9    0.00 
  84    2:20   0.00   49.2    85    4.3    51     5.7   950.5    0.00 
  84    2:30   0.00   48.7    86    4.7    99     6.6   950.3    0.00 
  84    2:40   0.00   47.8    87    4.6   156     5.8   950.2    0.00 
  84    2:50   0.00   46.7    89    4.2   197     5.2   950.0    0.00 
  84    3:00   0.00   46.9    90    4.1   226     5.1   950.1    0.00 
  84    3:10   0.00   47.2    90    4.1   214     4.7   950.0    0.00 
  84    3:20   0.00   47.6    89    3.9   200     4.3   949.8    0.00 
  84    3:30   0.00   47.4    90    4.1   199     4.5   949.8    0.00 
  84    3:40   0.00   47.2    89    5.0   211     5.7   949.8    0.00 
  84    3:50   0.00   46.9    90    4.9   216     5.3   949.8    0.00 
  84    4:00   0.00   46.9    89    4.7   220     5.8   949.8    0.00 
  84    4:10   0.00   47.1    89    4.2   221     4.7   949.8    0.00 
  84    4:20   0.00   46.7    88    4.6   212     5.9   949.8    0.00 
  84    4:30   0.00   46.5    88    7.1   286    11.1   950.0    0.00 
  84    4:40   0.00   47.0    87   10.8   302    14.4   950.0    0.00 
  84    4:50   0.00   46.3    90   10.6   307    13.0   950.1    0.00 
  84    5:00   0.00   45.9    92   10.5   312    13.2   950.2    0.00 
  84    5:10   0.00   45.7    92   11.7   315    14.8   950.2    0.00 
  84    5:20   0.00   45.3    92   10.0   322    12.9   950.2    0.00 
  84    5:30   0.00   45.1    93    9.4   316    11.7   950.3    0.00 
  84    5:40   0.00   45.6    92    9.8   312    12.2   950.3    0.00 
  84    5:50   0.00   45.0    92    7.9   322     9.6   950.3    0.00 
  84    6:00   0.00   45.2    93    8.5   331    10.1   950.4    0.00 
  84    6:10   0.01   45.4    92    8.5   336    10.1   950.6    0.00 
  84    6:20   0.05   45.2    93    8.2   340     9.3   950.6    0.00 
  84    6:30   0.07   46.1    92    7.4   349    10.7   950.5    0.00 
  84    6:40   0.10   46.7    92    7.9   322    10.9   950.5    0.00 
  84    6:50   0.11   46.9    93    8.9   309    12.5   950.8    0.00 
  84    7:00   0.10   46.5    94    8.2   309    10.4   950.8    0.00 
  84    7:10   0.11   47.0    95    6.9   308     9.5   950.9    0.00 
  84    7:20   0.15   47.9    95    6.9   314     9.8   951.0    0.00 
  84    7:30   0.20   48.5    93    7.7   309    10.2   951.0    0.00 
  84    7:40   0.31   49.6    89    6.7   307     8.8   951.0    0.00 
  84    7:50   0.32   50.6    86    5.6   313     8.1   951.1    0.00 
  84    8:00   0.12   49.9    86    5.7   304     7.8   951.1    0.00 
  84    8:10   0.09   49.5    87    5.4   307     6.8   951.3    0.00 
  84    8:20   0.30   50.4    84    3.7   325     6.1   951.2    0.00 
  84    8:30   0.53   53.1    76    2.9   338     6.2   951.2    0.00 
  84    8:40   0.47   53.8    75    3.9   299     5.7   951.2    0.00 
  84    8:50   0.19   52.6    76    3.2   328     5.1   951.3    0.00 
  84    9:00   0.24   52.6    76    2.7   341     5.2   951.3    0.00 
  84    9:10   0.28   53.8    72    1.9   242     5.6   951.2    0.00 
  84    9:20   0.52   54.7    70    2.7   348     7.7   951.2    0.00 
  84    9:30   0.69   57.2    64    3.3    28     7.8   951.2    0.00 
  84    9:40   0.70   57.7    60    2.3   293     5.7   951.4    0.00 
  84    9:50   0.65   58.0    58    4.8   316     8.9   951.5    0.00 
  84   10:00   0.79   58.9    58    3.5   228     6.6   951.5    0.00 
  84   10:10   0.74   59.3    58    4.4   293     8.2   951.5    0.00 
  84   10:20   0.44   58.5    60    2.5   346     8.7   951.4    0.00 
  84   10:30   0.32   58.2    60    5.6    59    10.2   951.2    0.00 
  84   10:40   0.63   58.2    60    3.9    94     7.0   951.1    0.00 
  84   10:50   0.59   60.0    56    3.8   143     6.6   951.0    0.00 
  84   11:00   0.78   60.5    55    1.9   222     7.4   950.9    0.00 
  84   11:10   0.77   62.3    52    3.4   162     7.2   950.7    0.00 
  84   11:20   0.44   60.9    54    5.1    99     8.0   950.6    0.00 
  84   11:30   0.49   61.2    54    4.0    55    12.7   950.5    0.00 
  84   11:40   0.72   62.0    52    7.4   282    17.0   950.4    0.00 
  84   11:50   0.70   62.3    51   10.4   285    15.7   950.2    0.00 
  84   12:00   0.73   62.2    51   10.7   281    17.0   950.1    0.00 
  84   12:10   0.75   63.3    49   10.6   267    18.5   950.0    0.00 
  84   12:20   0.38   62.2    51   10.7   268    16.7   950.0    0.00 
  84   12:30   0.39   61.7    52   10.5   286    17.2   949.9    0.00 
  84   12:40   0.31   61.6    53   11.4   278    16.5   949.8    0.00 
  84   12:50   0.26   60.4    57   12.3   294    17.9   949.8    0.00 
  84   13:00   0.52   61.8    54   12.6   287    17.0   949.7    0.00 
  84   13:10   0.55   61.2    54   12.4   276    16.7   949.6    0.00 
  84   13:20   0.71   63.0    51   13.2   286    21.8   949.5    0.00 
  84   13:30   0.86   64.0    47   12.8   288    20.6   949.4    0.00 
  84   13:40   0.80   64.0    46   14.8   282    20.2   949.3    0.00 
  84   13:50   0.80   64.8    43   10.1   286    18.1   949.2    0.00 
  84   14:00   0.76   64.9    44   12.4   286    18.9   949.1    0.00 
  84   14:10   0.64   64.8    43   14.1   298    18.9   948.9    0.00 
  84   14:20   0.73   64.9    43   13.3   282    18.3   948.9    0.00 
  84   14:30   0.35   64.5    45   10.7   277    15.6   948.8    0.00 
  84   14:40   0.67   64.5    45    9.7   277    14.4   948.6    0.00 
  84   14:50   0.68   65.9    40    9.0   284    15.7   948.5    0.00 
  84   15:00   0.67   66.2    35    8.6   281    17.2   948.5    0.00 
  84   15:10   0.39   65.1    39   10.0   274    16.1   948.3    0.00 
  84   15:20   0.35   63.6    45    8.9   302    15.0   948.3    0.00 
  84   15:30   0.56   65.5    43   13.1   298    17.9   948.2    0.00 
  84   15:40   0.51   64.8    43   10.5   300    15.4   948.2    0.00 
  84   15:50   0.46   64.9    45   10.0   315    17.2   948.1    0.00 
  84   16:00   0.42   64.6    47   13.2   319    18.1   948.0    0.00 
  84   16:10   0.36   63.7    50   11.8   308    16.4   948.1    0.00 
  84   16:20   0.33   63.8    50   10.8   309    16.2   948.1    0.00 
  84   16:30   0.30   64.2    49    9.7   308    14.8   948.1    0.00 
  84   16:40   0.26   63.4    50   12.3   294    17.0   948.1    0.00 
  84   16:50   0.21   62.6    51   12.3   298    15.8   948.0    0.00 

Return to Motte Rimrock Reserve graphs page.


Western Regional Climate Center,wrcc@dri.edu